sensor_id;sensor_type;location;lat;lon;timestamp;temperature;humidity
76291;DHT22;65100;46.884;17.410;2023-05-07T00:00:13;14.71;85.93
76291;DHT22;65100;46.884;17.410;2023-05-07T00:02:40;14.80;85.49
76291;DHT22;65100;46.884;17.410;2023-05-07T00:05:06;14.78;85.78
76291;DHT22;65100;46.884;17.410;2023-05-07T00:07:32;14.73;85.99
76291;DHT22;65100;46.884;17.410;2023-05-07T00:09:57;14.74;86.60
76291;DHT22;65100;46.884;17.410;2023-05-07T00:12:23;14.67;85.36
76291;DHT22;65100;46.884;17.410;2023-05-07T00:14:48;14.85;82.76
76291;DHT22;65100;46.884;17.410;2023-05-07T00:17:14;14.81;82.29
76291;DHT22;65100;46.884;17.410;2023-05-07T00:19:39;14.74;84.06
76291;DHT22;65100;46.884;17.410;2023-05-07T00:22:05;14.75;84.48
76291;DHT22;65100;46.884;17.410;2023-05-07T00:24:30;14.73;83.29
76291;DHT22;65100;46.884;17.410;2023-05-07T00:26:56;14.83;82.03
76291;DHT22;65100;46.884;17.410;2023-05-07T00:29:23;14.83;81.93
76291;DHT22;65100;46.884;17.410;2023-05-07T00:31:49;14.71;82.89
76291;DHT22;65100;46.884;17.410;2023-05-07T00:34:15;14.65;80.99
76291;DHT22;65100;46.884;17.410;2023-05-07T00:36:40;14.45;80.07
76291;DHT22;65100;46.884;17.410;2023-05-07T00:39:47;14.31;80.27
76291;DHT22;65100;46.884;17.410;2023-05-07T00:42:13;14.09;79.68
76291;DHT22;65100;46.884;17.410;2023-05-07T00:44:40;14.08;79.94
76291;DHT22;65100;46.884;17.410;2023-05-07T00:47:05;13.93;80.02
76291;DHT22;65100;46.884;17.410;2023-05-07T00:49:44;13.72;80.45
76291;DHT22;65100;46.884;17.410;2023-05-07T00:52:15;13.49;81.05
76291;DHT22;65100;46.884;17.410;2023-05-07T00:54:42;13.42;82.16
76291;DHT22;65100;46.884;17.410;2023-05-07T00:57:09;13.29;81.16
76291;DHT22;65100;46.884;17.410;2023-05-07T00:59:35;12.94;83.08
76291;DHT22;65100;46.884;17.410;2023-05-07T01:02:01;12.84;83.98
76291;DHT22;65100;46.884;17.410;2023-05-07T01:04:26;12.95;84.09
76291;DHT22;65100;46.884;17.410;2023-05-07T01:06:56;12.60;84.13
76291;DHT22;65100;46.884;17.410;2023-05-07T01:09:24;12.87;84.10
76291;DHT22;65100;46.884;17.410;2023-05-07T01:11:50;13.23;82.96
76291;DHT22;65100;46.884;17.410;2023-05-07T01:14:17;13.23;81.71
76291;DHT22;65100;46.884;17.410;2023-05-07T01:16:42;13.21;81.63
76291;DHT22;65100;46.884;17.410;2023-05-07T01:19:09;13.00;82.95
76291;DHT22;65100;46.884;17.410;2023-05-07T01:21:37;13.14;82.56
76291;DHT22;65100;46.884;17.410;2023-05-07T01:24:04;13.21;82.91
76291;DHT22;65100;46.884;17.410;2023-05-07T01:26:30;13.19;82.83
76291;DHT22;65100;46.884;17.410;2023-05-07T01:28:55;13.11;81.97
76291;DHT22;65100;46.884;17.410;2023-05-07T01:31:22;12.92;83.63
76291;DHT22;65100;46.884;17.410;2023-05-07T01:33:49;13.12;82.45
76291;DHT22;65100;46.884;17.410;2023-05-07T01:36:17;13.15;81.68
76291;DHT22;65100;46.884;17.410;2023-05-07T01:38:44;13.05;82.43
76291;DHT22;65100;46.884;17.410;2023-05-07T01:41:10;13.42;86.52
76291;DHT22;65100;46.884;17.410;2023-05-07T01:43:36;13.72;85.42
76291;DHT22;65100;46.884;17.410;2023-05-07T01:46:02;13.63;83.58
76291;DHT22;65100;46.884;17.410;2023-05-07T01:48:28;13.66;84.05
76291;DHT22;65100;46.884;17.410;2023-05-07T01:50:54;13.65;81.80
76291;DHT22;65100;46.884;17.410;2023-05-07T01:53:20;13.62;80.14
76291;DHT22;65100;46.884;17.410;2023-05-07T01:55:46;13.54;81.01
76291;DHT22;65100;46.884;17.410;2023-05-07T01:58:11;13.46;81.28
76291;DHT22;65100;46.884;17.410;2023-05-07T02:00:37;13.29;80.86
76291;DHT22;65100;46.884;17.410;2023-05-07T02:03:02;13.36;81.97
76291;DHT22;65100;46.884;17.410;2023-05-07T02:05:28;13.36;83.15
76291;DHT22;65100;46.884;17.410;2023-05-07T02:07:53;13.35;83.70
76291;DHT22;65100;46.884;17.410;2023-05-07T02:10:19;13.10;82.02
76291;DHT22;65100;46.884;17.410;2023-05-07T02:12:44;12.26;83.44
76291;DHT22;65100;46.884;17.410;2023-05-07T02:15:10;12.07;85.12
76291;DHT22;65100;46.884;17.410;2023-05-07T02:17:39;12.44;84.40
76291;DHT22;65100;46.884;17.410;2023-05-07T02:20:23;12.30;84.78
76291;DHT22;65100;46.884;17.410;2023-05-07T02:22:48;12.47;85.76
76291;DHT22;65100;46.884;17.410;2023-05-07T02:25:13;12.68;85.55
76291;DHT22;65100;46.884;17.410;2023-05-07T02:27:39;12.77;86.20
76291;DHT22;65100;46.884;17.410;2023-05-07T02:30:05;13.01;85.37
76291;DHT22;65100;46.884;17.410;2023-05-07T02:32:31;13.14;84.11
76291;DHT22;65100;46.884;17.410;2023-05-07T02:34:56;13.10;83.90
76291;DHT22;65100;46.884;17.410;2023-05-07T02:37:21;13.05;83.00
76291;DHT22;65100;46.884;17.410;2023-05-07T02:39:47;12.83;83.05
76291;DHT22;65100;46.884;17.410;2023-05-07T02:42:12;12.71;83.25
76291;DHT22;65100;46.884;17.410;2023-05-07T02:44:38;12.60;84.98
76291;DHT22;65100;46.884;17.410;2023-05-07T02:47:03;12.78;85.27
76291;DHT22;65100;46.884;17.410;2023-05-07T02:49:29;12.69;86.45
76291;DHT22;65100;46.884;17.410;2023-05-07T02:51:54;12.74;85.13
76291;DHT22;65100;46.884;17.410;2023-05-07T02:54:21;12.87;83.02
76291;DHT22;65100;46.884;17.410;2023-05-07T02:56:46;12.92;82.31
76291;DHT22;65100;46.884;17.410;2023-05-07T02:59:11;12.77;82.20
76291;DHT22;65100;46.884;17.410;2023-05-07T03:01:37;12.68;82.20
76291;DHT22;65100;46.884;17.410;2023-05-07T03:04:02;12.71;82.85
76291;DHT22;65100;46.884;17.410;2023-05-07T03:06:28;12.56;84.32
76291;DHT22;65100;46.884;17.410;2023-05-07T03:08:53;12.51;84.30
76291;DHT22;65100;46.884;17.410;2023-05-07T03:11:19;12.56;83.75
76291;DHT22;65100;46.884;17.410;2023-05-07T03:13:44;12.61;82.86
76291;DHT22;65100;46.884;17.410;2023-05-07T03:16:10;12.32;85.44
76291;DHT22;65100;46.884;17.410;2023-05-07T03:18:35;12.03;86.93
76291;DHT22;65100;46.884;17.410;2023-05-07T03:21:01;11.86;87.60
76291;DHT22;65100;46.884;17.410;2023-05-07T03:23:26;12.53;83.59
76291;DHT22;65100;46.884;17.410;2023-05-07T03:25:52;12.63;82.18
76291;DHT22;65100;46.884;17.410;2023-05-07T03:28:17;12.67;82.83
76291;DHT22;65100;46.884;17.410;2023-05-07T03:30:43;12.74;82.51
76291;DHT22;65100;46.884;17.410;2023-05-07T03:33:08;12.77;80.98
76291;DHT22;65100;46.884;17.410;2023-05-07T03:35:34;12.74;81.71
76291;DHT22;65100;46.884;17.410;2023-05-07T03:37:59;12.69;82.13
76291;DHT22;65100;46.884;17.410;2023-05-07T03:40:24;12.74;81.86
76291;DHT22;65100;46.884;17.410;2023-05-07T03:42:50;12.69;82.09
76291;DHT22;65100;46.884;17.410;2023-05-07T03:45:15;12.61;82.20
76291;DHT22;65100;46.884;17.410;2023-05-07T03:47:41;12.57;82.26
76291;DHT22;65100;46.884;17.410;2023-05-07T03:50:07;12.46;81.65
76291;DHT22;65100;46.884;17.410;2023-05-07T03:52:32;12.51;82.10
76291;DHT22;65100;46.884;17.410;2023-05-07T03:54:58;12.50;82.34
76291;DHT22;65100;46.884;17.410;2023-05-07T03:57:23;12.58;83.67
76291;DHT22;65100;46.884;17.410;2023-05-07T03:59:48;12.74;84.18
76291;DHT22;65100;46.884;17.410;2023-05-07T04:02:14;12.91;84.33
76291;DHT22;65100;46.884;17.410;2023-05-07T04:04:39;13.01;83.10
76291;DHT22;65100;46.884;17.410;2023-05-07T04:07:05;12.97;83.17
76291;DHT22;65100;46.884;17.410;2023-05-07T04:09:30;12.91;83.67
76291;DHT22;65100;46.884;17.410;2023-05-07T04:11:56;12.81;85.26
76291;DHT22;65100;46.884;17.410;2023-05-07T04:14:21;12.78;86.24
76291;DHT22;65100;46.884;17.410;2023-05-07T04:16:47;12.87;86.59
76291;DHT22;65100;46.884;17.410;2023-05-07T04:19:12;13.00;86.53
76291;DHT22;65100;46.884;17.410;2023-05-07T04:21:38;13.02;86.74
76291;DHT22;65100;46.884;17.410;2023-05-07T04:24:03;12.98;87.36
76291;DHT22;65100;46.884;17.410;2023-05-07T04:26:29;13.25;86.55
76291;DHT22;65100;46.884;17.410;2023-05-07T04:28:55;13.82;85.34
76291;DHT22;65100;46.884;17.410;2023-05-07T04:31:21;13.86;84.92
76291;DHT22;65100;46.884;17.410;2023-05-07T04:33:47;13.96;84.57
76291;DHT22;65100;46.884;17.410;2023-05-07T04:36:12;14.05;84.49
76291;DHT22;65100;46.884;17.410;2023-05-07T04:38:38;14.44;83.16
76291;DHT22;65100;46.884;17.410;2023-05-07T04:41:06;14.43;82.76
76291;DHT22;65100;46.884;17.410;2023-05-07T04:43:32;14.53;82.37
76291;DHT22;65100;46.884;17.410;2023-05-07T04:45:58;14.51;82.63
76291;DHT22;65100;46.884;17.410;2023-05-07T04:48:23;14.59;82.22
76291;DHT22;65100;46.884;17.410;2023-05-07T04:50:50;14.60;82.79
76291;DHT22;65100;46.884;17.410;2023-05-07T04:53:16;14.54;83.29
76291;DHT22;65100;46.884;17.410;2023-05-07T04:55:42;14.44;84.34
76291;DHT22;65100;46.884;17.410;2023-05-07T04:58:08;14.67;84.33
76291;DHT22;65100;46.884;17.410;2023-05-07T05:00:34;14.63;85.36
76291;DHT22;65100;46.884;17.410;2023-05-07T05:02:59;14.41;87.12
76291;DHT22;65100;46.884;17.410;2023-05-07T05:05:25;14.56;86.95
76291;DHT22;65100;46.884;17.410;2023-05-07T05:07:50;14.84;86.08
76291;DHT22;65100;46.884;17.410;2023-05-07T05:10:17;15.11;85.30
76291;DHT22;65100;46.884;17.410;2023-05-07T05:12:42;15.52;83.86
76291;DHT22;65100;46.884;17.410;2023-05-07T05:15:09;15.69;83.76
76291;DHT22;65100;46.884;17.410;2023-05-07T05:17:35;15.72;83.55
76291;DHT22;65100;46.884;17.410;2023-05-07T05:20:01;15.78;83.80
76291;DHT22;65100;46.884;17.410;2023-05-07T05:22:27;15.89;83.82
76291;DHT22;65100;46.884;17.410;2023-05-07T05:24:55;15.99;83.88
76291;DHT22;65100;46.884;17.410;2023-05-07T05:27:20;16.16;83.81
76291;DHT22;65100;46.884;17.410;2023-05-07T05:29:45;16.33;84.09
76291;DHT22;65100;46.884;17.410;2023-05-07T05:32:11;16.59;83.43
76291;DHT22;65100;46.884;17.410;2023-05-07T05:34:36;16.73;82.97
76291;DHT22;65100;46.884;17.410;2023-05-07T05:37:02;16.84;82.05
76291;DHT22;65100;46.884;17.410;2023-05-07T05:39:27;16.91;81.59
76291;DHT22;65100;46.884;17.410;2023-05-07T05:41:53;17.04;81.83
76291;DHT22;65100;46.884;17.410;2023-05-07T05:44:18;17.10;81.61
76291;DHT22;65100;46.884;17.410;2023-05-07T05:46:43;17.17;81.84
76291;DHT22;65100;46.884;17.410;2023-05-07T05:49:09;17.18;82.10
76291;DHT22;65100;46.884;17.410;2023-05-07T05:51:35;17.36;81.41
76291;DHT22;65100;46.884;17.410;2023-05-07T05:54:00;17.49;81.30
76291;DHT22;65100;46.884;17.410;2023-05-07T05:56:26;17.39;81.67
76291;DHT22;65100;46.884;17.410;2023-05-07T05:58:51;17.51;81.68
76291;DHT22;65100;46.884;17.410;2023-05-07T06:01:17;17.72;80.38
76291;DHT22;65100;46.884;17.410;2023-05-07T06:03:43;18.00;80.21
76291;DHT22;65100;46.884;17.410;2023-05-07T06:06:09;18.27;79.06
76291;DHT22;65100;46.884;17.410;2023-05-07T06:08:34;18.32;79.14
76291;DHT22;65100;46.884;17.410;2023-05-07T06:11:01;18.54;78.65
76291;DHT22;65100;46.884;17.410;2023-05-07T06:13:26;19.17;77.25
76291;DHT22;65100;46.884;17.410;2023-05-07T06:15:52;19.32;76.01
76291;DHT22;65100;46.884;17.410;2023-05-07T06:18:17;19.29;76.32
76291;DHT22;65100;46.884;17.410;2023-05-07T06:20:43;19.57;74.61
76291;DHT22;65100;46.884;17.410;2023-05-07T06:23:08;19.57;75.00
76291;DHT22;65100;46.884;17.410;2023-05-07T06:25:34;19.89;74.31
76291;DHT22;65100;46.884;17.410;2023-05-07T06:27:59;20.23;72.78
76291;DHT22;65100;46.884;17.410;2023-05-07T06:30:25;20.64;71.50
76291;DHT22;65100;46.884;17.410;2023-05-07T06:32:51;20.90;70.41
76291;DHT22;65100;46.884;17.410;2023-05-07T06:35:17;21.21;69.53
76291;DHT22;65100;46.884;17.410;2023-05-07T06:37:42;21.41;68.66
76291;DHT22;65100;46.884;17.410;2023-05-07T06:40:08;21.42;67.26
76291;DHT22;65100;46.884;17.410;2023-05-07T06:42:35;21.72;67.94
76291;DHT22;65100;46.884;17.410;2023-05-07T06:45:01;22.29;66.03
76291;DHT22;65100;46.884;17.410;2023-05-07T06:47:27;22.88;64.09
76291;DHT22;65100;46.884;17.410;2023-05-07T06:49:53;23.64;61.58
76291;DHT22;65100;46.884;17.410;2023-05-07T06:52:18;24.10;59.45
76291;DHT22;65100;46.884;17.410;2023-05-07T06:54:44;24.42;58.95
76291;DHT22;65100;46.884;17.410;2023-05-07T06:57:09;24.39;57.88
76291;DHT22;65100;46.884;17.410;2023-05-07T06:59:35;23.96;58.69
76291;DHT22;65100;46.884;17.410;2023-05-07T07:02:00;23.30;61.20
76291;DHT22;65100;46.884;17.410;2023-05-07T07:04:26;22.44;61.08
76291;DHT22;65100;46.884;17.410;2023-05-07T07:06:53;22.03;62.64
76291;DHT22;65100;46.884;17.410;2023-05-07T07:09:19;21.86;62.84
76291;DHT22;65100;46.884;17.410;2023-05-07T07:11:44;22.43;61.47
76291;DHT22;65100;46.884;17.410;2023-05-07T07:14:10;23.27;60.83
76291;DHT22;65100;46.884;17.410;2023-05-07T07:16:35;23.69;58.42
76291;DHT22;65100;46.884;17.410;2023-05-07T07:19:00;24.39;55.77
76291;DHT22;65100;46.884;17.410;2023-05-07T07:21:26;25.26;54.44
76291;DHT22;65100;46.884;17.410;2023-05-07T07:23:51;25.02;53.76
76291;DHT22;65100;46.884;17.410;2023-05-07T07:26:17;24.76;54.72
76291;DHT22;65100;46.884;17.410;2023-05-07T07:28:46;25.38;54.28
76291;DHT22;65100;46.884;17.410;2023-05-07T07:31:12;25.99;51.28
76291;DHT22;65100;46.884;17.410;2023-05-07T07:33:37;26.21;49.56
76291;DHT22;65100;46.884;17.410;2023-05-07T07:36:03;26.49;49.48
76291;DHT22;65100;46.884;17.410;2023-05-07T07:38:28;26.29;49.48
76291;DHT22;65100;46.884;17.410;2023-05-07T07:40:54;26.02;48.14
76291;DHT22;65100;46.884;17.410;2023-05-07T07:43:20;26.25;48.70
76291;DHT22;65100;46.884;17.410;2023-05-07T07:45:45;26.78;47.93
76291;DHT22;65100;46.884;17.410;2023-05-07T07:48:11;27.58;45.50
76291;DHT22;65100;46.884;17.410;2023-05-07T07:50:36;26.93;43.71
76291;DHT22;65100;46.884;17.410;2023-05-07T07:53:02;26.01;47.32
76291;DHT22;65100;46.884;17.410;2023-05-07T07:55:28;25.95;47.26
76291;DHT22;65100;46.884;17.410;2023-05-07T07:57:53;26.09;46.21
76291;DHT22;65100;46.884;17.410;2023-05-07T08:00:19;25.33;50.25
76291;DHT22;65100;46.884;17.410;2023-05-07T08:02:44;24.91;50.36
76291;DHT22;65100;46.884;17.410;2023-05-07T08:05:10;24.98;52.04
76291;DHT22;65100;46.884;17.410;2023-05-07T08:07:35;25.47;48.61
76291;DHT22;65100;46.884;17.410;2023-05-07T08:10:01;25.58;49.85
76291;DHT22;65100;46.884;17.410;2023-05-07T08:12:27;25.65;50.08
76291;DHT22;65100;46.884;17.410;2023-05-07T08:14:53;25.64;50.53
76291;DHT22;65100;46.884;17.410;2023-05-07T08:17:18;25.38;50.19
76291;DHT22;65100;46.884;17.410;2023-05-07T08:19:43;25.06;50.96
76291;DHT22;65100;46.884;17.410;2023-05-07T08:22:10;24.66;50.87
76291;DHT22;65100;46.884;17.410;2023-05-07T08:24:36;24.72;50.96
76291;DHT22;65100;46.884;17.410;2023-05-07T08:27:01;24.59;49.47
76291;DHT22;65100;46.884;17.410;2023-05-07T08:29:27;24.49;48.69
76291;DHT22;65100;46.884;17.410;2023-05-07T08:31:53;24.50;49.31
76291;DHT22;65100;46.884;17.410;2023-05-07T08:34:19;24.22;51.68
76291;DHT22;65100;46.884;17.410;2023-05-07T08:36:45;24.22;51.78
76291;DHT22;65100;46.884;17.410;2023-05-07T08:39:13;24.05;49.93
76291;DHT22;65100;46.884;17.410;2023-05-07T08:41:40;23.65;51.68
76291;DHT22;65100;46.884;17.410;2023-05-07T08:44:12;23.75;52.70
76291;DHT22;65100;46.884;17.410;2023-05-07T08:47:00;23.86;50.90
76291;DHT22;65100;46.884;17.410;2023-05-07T08:49:27;23.18;50.41
76291;DHT22;65100;46.884;17.410;2023-05-07T08:51:52;23.48;51.16
76291;DHT22;65100;46.884;17.410;2023-05-07T08:54:18;23.42;50.82
76291;DHT22;65100;46.884;17.410;2023-05-07T08:56:45;23.38;52.80
76291;DHT22;65100;46.884;17.410;2023-05-07T08:59:11;23.58;53.57
76291;DHT22;65100;46.884;17.410;2023-05-07T09:01:36;23.69;51.45
76291;DHT22;65100;46.884;17.410;2023-05-07T09:04:02;23.82;51.10
76291;DHT22;65100;46.884;17.410;2023-05-07T09:06:27;23.96;51.20
76291;DHT22;65100;46.884;17.410;2023-05-07T09:08:54;23.92;50.72
76291;DHT22;65100;46.884;17.410;2023-05-07T09:11:23;23.98;49.16
76291;DHT22;65100;46.884;17.410;2023-05-07T09:13:56;24.09;49.47
76291;DHT22;65100;46.884;17.410;2023-05-07T09:16:23;24.16;51.00
76291;DHT22;65100;46.884;17.410;2023-05-07T09:18:51;24.18;51.08
76291;DHT22;65100;46.884;17.410;2023-05-07T09:21:17;24.13;51.04
76291;DHT22;65100;46.884;17.410;2023-05-07T09:23:43;24.13;49.83
76291;DHT22;65100;46.884;17.410;2023-05-07T09:26:09;24.08;48.19
76291;DHT22;65100;46.884;17.410;2023-05-07T09:28:41;24.26;49.27
76291;DHT22;65100;46.884;17.410;2023-05-07T09:31:07;24.22;47.97
76291;DHT22;65100;46.884;17.410;2023-05-07T09:33:33;24.20;48.96
76291;DHT22;65100;46.884;17.410;2023-05-07T09:36:02;24.23;49.09
76291;DHT22;65100;46.884;17.410;2023-05-07T09:38:28;24.29;50.79
76291;DHT22;65100;46.884;17.410;2023-05-07T09:41:08;24.05;52.06
76291;DHT22;65100;46.884;17.410;2023-05-07T09:43:35;24.22;52.71
76291;DHT22;65100;46.884;17.410;2023-05-07T09:46:11;24.23;54.01
76291;DHT22;65100;46.884;17.410;2023-05-07T09:48:38;24.20;54.70
76291;DHT22;65100;46.884;17.410;2023-05-07T09:51:14;24.28;55.15
76291;DHT22;65100;46.884;17.410;2023-05-07T09:53:40;24.22;52.98
76291;DHT22;65100;46.884;17.410;2023-05-07T09:56:07;24.04;52.60
76291;DHT22;65100;46.884;17.410;2023-05-07T09:58:33;23.94;52.49
76291;DHT22;65100;46.884;17.410;2023-05-07T10:01:02;23.92;53.80
76291;DHT22;65100;46.884;17.410;2023-05-07T10:03:29;23.88;54.27
76291;DHT22;65100;46.884;17.410;2023-05-07T10:05:58;23.88;53.50
76291;DHT22;65100;46.884;17.410;2023-05-07T10:08:24;23.98;54.33
76291;DHT22;65100;46.884;17.410;2023-05-07T10:10:49;24.15;53.88
76291;DHT22;65100;46.884;17.410;2023-05-07T10:13:17;24.20;53.61
76291;DHT22;65100;46.884;17.410;2023-05-07T10:15:44;24.26;52.55
76291;DHT22;65100;46.884;17.410;2023-05-07T10:18:11;24.26;54.51
76291;DHT22;65100;46.884;17.410;2023-05-07T10:20:38;24.32;52.77
76291;DHT22;65100;46.884;17.410;2023-05-07T10:23:05;24.55;51.70
76291;DHT22;65100;46.884;17.410;2023-05-07T10:25:31;24.62;51.16
76291;DHT22;65100;46.884;17.410;2023-05-07T10:28:07;24.63;52.62
76291;DHT22;65100;46.884;17.410;2023-05-07T10:33:12;24.69;54.38
76291;DHT22;65100;46.884;17.410;2023-05-07T10:35:41;24.66;52.55
76291;DHT22;65100;46.884;17.410;2023-05-07T10:38:08;24.57;52.60
76291;DHT22;65100;46.884;17.410;2023-05-07T10:40:34;24.46;52.22
76291;DHT22;65100;46.884;17.410;2023-05-07T10:43:01;24.42;51.99
76291;DHT22;65100;46.884;17.410;2023-05-07T10:45:28;24.33;53.36
76291;DHT22;65100;46.884;17.410;2023-05-07T10:48:20;24.29;52.60
76291;DHT22;65100;46.884;17.410;2023-05-07T10:50:46;24.29;53.03
76291;DHT22;65100;46.884;17.410;2023-05-07T10:55:43;24.40;53.63
76291;DHT22;65100;46.884;17.410;2023-05-07T10:58:28;24.52;53.49
76291;DHT22;65100;46.884;17.410;2023-05-07T11:01:00;24.50;53.14
76291;DHT22;65100;46.884;17.410;2023-05-07T11:03:27;24.48;52.54
76291;DHT22;65100;46.884;17.410;2023-05-07T11:06:15;24.59;53.78
76291;DHT22;65100;46.884;17.410;2023-05-07T11:08:59;24.43;53.49
76291;DHT22;65100;46.884;17.410;2023-05-07T11:14:08;24.02;52.19
76291;DHT22;65100;46.884;17.410;2023-05-07T11:16:34;23.95;53.67
76291;DHT22;65100;46.884;17.410;2023-05-07T11:19:01;23.98;53.11
76291;DHT22;65100;46.884;17.410;2023-05-07T11:22:28;24.22;52.51
76291;DHT22;65100;46.884;17.410;2023-05-07T11:24:54;24.33;52.24
76291;DHT22;65100;46.884;17.410;2023-05-07T11:27:23;24.28;52.22
76291;DHT22;65100;46.884;17.410;2023-05-07T11:29:50;24.20;51.62
76291;DHT22;65100;46.884;17.410;2023-05-07T11:32:16;24.42;52.00
76291;DHT22;65100;46.884;17.410;2023-05-07T11:34:47;24.36;50.81
76291;DHT22;65100;46.884;17.410;2023-05-07T11:37:19;24.32;54.16
76291;DHT22;65100;46.884;17.410;2023-05-07T11:39:45;23.88;52.85
76291;DHT22;65100;46.884;17.410;2023-05-07T11:42:30;23.92;51.86
76291;DHT22;65100;46.884;17.410;2023-05-07T11:44:56;24.05;52.09
76291;DHT22;65100;46.884;17.410;2023-05-07T11:47:22;24.36;51.96
76291;DHT22;65100;46.884;17.410;2023-05-07T11:49:48;24.39;53.04
76291;DHT22;65100;46.884;17.410;2023-05-07T11:52:15;24.39;54.76
76291;DHT22;65100;46.884;17.410;2023-05-07T11:54:41;24.39;55.35
76291;DHT22;65100;46.884;17.410;2023-05-07T11:57:10;24.39;54.00
76291;DHT22;65100;46.884;17.410;2023-05-07T11:59:39;24.30;54.58
76291;DHT22;65100;46.884;17.410;2023-05-07T12:02:06;24.08;55.67
76291;DHT22;65100;46.884;17.410;2023-05-07T12:04:32;23.92;54.21
76291;DHT22;65100;46.884;17.410;2023-05-07T12:06:57;24.05;57.13
76291;DHT22;65100;46.884;17.410;2023-05-07T12:09:23;24.01;53.82
76291;DHT22;65100;46.884;17.410;2023-05-07T12:11:48;23.89;52.15
76291;DHT22;65100;46.884;17.410;2023-05-07T12:14:14;24.06;53.65
76291;DHT22;65100;46.884;17.410;2023-05-07T12:16:41;24.09;54.58
76291;DHT22;65100;46.884;17.410;2023-05-07T12:19:08;24.12;54.16
76291;DHT22;65100;46.884;17.410;2023-05-07T12:21:37;24.13;53.73
76291;DHT22;65100;46.884;17.410;2023-05-07T12:24:03;24.01;52.44
76291;DHT22;65100;46.884;17.410;2023-05-07T12:26:29;24.05;54.49
76291;DHT22;65100;46.884;17.410;2023-05-07T12:28:57;24.20;52.78
76291;DHT22;65100;46.884;17.410;2023-05-07T12:31:22;24.48;53.41
76291;DHT22;65100;46.884;17.410;2023-05-07T12:33:48;24.69;52.78
76291;DHT22;65100;46.884;17.410;2023-05-07T12:36:15;24.56;52.31
76291;DHT22;65100;46.884;17.410;2023-05-07T12:38:41;24.32;53.02
76291;DHT22;65100;46.884;17.410;2023-05-07T12:41:07;24.19;53.63
76291;DHT22;65100;46.884;17.410;2023-05-07T12:43:33;24.13;53.94
76291;DHT22;65100;46.884;17.410;2023-05-07T12:46:01;24.29;52.32
76291;DHT22;65100;46.884;17.410;2023-05-07T12:48:27;24.43;52.79
76291;DHT22;65100;46.884;17.410;2023-05-07T12:50:53;24.56;53.99
76291;DHT22;65100;46.884;17.410;2023-05-07T12:53:24;24.60;52.84
76291;DHT22;65100;46.884;17.410;2023-05-07T12:55:55;24.63;53.68
76291;DHT22;65100;46.884;17.410;2023-05-07T12:58:32;24.43;52.73
76291;DHT22;65100;46.884;17.410;2023-05-07T13:01:00;24.30;51.49
76291;DHT22;65100;46.884;17.410;2023-05-07T13:03:26;24.19;52.57
76291;DHT22;65100;46.884;17.410;2023-05-07T13:05:53;24.09;52.11
76291;DHT22;65100;46.884;17.410;2023-05-07T13:08:25;24.10;54.20
76291;DHT22;65100;46.884;17.410;2023-05-07T13:10:51;24.16;53.13
76291;DHT22;65100;46.884;17.410;2023-05-07T13:13:18;24.18;53.31
76291;DHT22;65100;46.884;17.410;2023-05-07T13:15:43;24.06;52.61
76291;DHT22;65100;46.884;17.410;2023-05-07T13:18:08;23.99;52.93
76291;DHT22;65100;46.884;17.410;2023-05-07T13:20:36;23.95;52.22
76291;DHT22;65100;46.884;17.410;2023-05-07T13:23:01;23.82;51.81
76291;DHT22;65100;46.884;17.410;2023-05-07T13:25:29;23.75;52.95
76291;DHT22;65100;46.884;17.410;2023-05-07T13:27:56;23.71;53.84
76291;DHT22;65100;46.884;17.410;2023-05-07T13:30:21;23.69;53.81
76291;DHT22;65100;46.884;17.410;2023-05-07T13:32:47;23.52;53.79
76291;DHT22;65100;46.884;17.410;2023-05-07T13:35:13;23.44;54.81
76291;DHT22;65100;46.884;17.410;2023-05-07T13:37:38;23.38;57.76
76291;DHT22;65100;46.884;17.410;2023-05-07T13:40:04;23.31;55.91
76291;DHT22;65100;46.884;17.410;2023-05-07T13:42:30;23.24;55.29
76291;DHT22;65100;46.884;17.410;2023-05-07T13:44:56;23.34;55.83
76291;DHT22;65100;46.884;17.410;2023-05-07T13:47:22;23.44;55.47
76291;DHT22;65100;46.884;17.410;2023-05-07T13:49:48;23.48;55.80
76291;DHT22;65100;46.884;17.410;2023-05-07T13:52:17;23.74;56.22
76291;DHT22;65100;46.884;17.410;2023-05-07T13:54:42;23.94;54.98
76291;DHT22;65100;46.884;17.410;2023-05-07T13:57:08;24.01;53.18
76291;DHT22;65100;46.884;17.410;2023-05-07T13:59:33;23.94;54.05
76291;DHT22;65100;46.884;17.410;2023-05-07T14:01:59;23.92;54.18
76291;DHT22;65100;46.884;17.410;2023-05-07T14:04:25;23.88;53.18
76291;DHT22;65100;46.884;17.410;2023-05-07T14:06:50;23.82;54.28
76291;DHT22;65100;46.884;17.410;2023-05-07T14:09:16;23.85;53.84
76291;DHT22;65100;46.884;17.410;2023-05-07T14:11:42;23.85;54.27
76291;DHT22;65100;46.884;17.410;2023-05-07T14:14:07;23.90;54.05
76291;DHT22;65100;46.884;17.410;2023-05-07T14:16:35;23.90;54.14
76291;DHT22;65100;46.884;17.410;2023-05-07T14:19:01;23.88;54.71
76291;DHT22;65100;46.884;17.410;2023-05-07T14:21:26;23.85;54.83
76291;DHT22;65100;46.884;17.410;2023-05-07T14:23:52;23.75;54.59
76291;DHT22;65100;46.884;17.410;2023-05-07T14:26:17;23.68;54.89
76291;DHT22;65100;46.884;17.410;2023-05-07T14:28:43;23.68;55.08
76291;DHT22;65100;46.884;17.410;2023-05-07T14:31:11;23.61;54.66
76291;DHT22;65100;46.884;17.410;2023-05-07T14:33:37;23.55;54.05
76291;DHT22;65100;46.884;17.410;2023-05-07T14:36:02;23.54;53.73
76291;DHT22;65100;46.884;17.410;2023-05-07T14:38:28;23.62;55.38
76291;DHT22;65100;46.884;17.410;2023-05-07T14:40:54;23.66;54.42
76291;DHT22;65100;46.884;17.410;2023-05-07T14:43:21;23.71;52.91
76291;DHT22;65100;46.884;17.410;2023-05-07T14:45:47;23.76;54.23
76291;DHT22;65100;46.884;17.410;2023-05-07T14:48:12;23.68;56.37
76291;DHT22;65100;46.884;17.410;2023-05-07T14:50:41;23.59;56.70
76291;DHT22;65100;46.884;17.410;2023-05-07T14:53:06;23.48;56.06
76291;DHT22;65100;46.884;17.410;2023-05-07T14:55:33;23.35;55.05
76291;DHT22;65100;46.884;17.410;2023-05-07T14:57:59;23.25;55.34
76291;DHT22;65100;46.884;17.410;2023-05-07T15:00:25;23.21;55.46
76291;DHT22;65100;46.884;17.410;2023-05-07T15:02:50;23.25;55.44
76291;DHT22;65100;46.884;17.410;2023-05-07T15:05:16;23.28;55.34
76291;DHT22;65100;46.884;17.410;2023-05-07T15:07:43;23.10;54.78
76291;DHT22;65100;46.884;17.410;2023-05-07T15:10:09;23.00;57.11
76291;DHT22;65100;46.884;17.410;2023-05-07T15:12:35;22.91;56.79
76291;DHT22;65100;46.884;17.410;2023-05-07T15:15:00;22.83;56.33
76291;DHT22;65100;46.884;17.410;2023-05-07T15:17:25;22.76;55.61
76291;DHT22;65100;46.884;17.410;2023-05-07T15:19:51;22.70;57.44